ICE31 BIAR-BIKF
Flight info
| Callsign | ICE31 |
|---|---|
| Flight time | 0h 35m |
| Altitude | 24000 |
| Route | DEVUD DEVUD5N |
| Aircraft | B38M/M-SDE1FGHILORVWXY/HB1 |
Departure
| Time | 2026-05-07 20:24 |
|---|---|
| Airport | Akureyri International Airport (BIAR) |
Arrival
| Time | 2026-05-07 21:00 |
|---|---|
| Airport | Keflavik International Airport (BIKF) |
| Time | Latitude | Longitude | Altitude | Speed | Heading |
|---|---|---|---|---|---|
| 2026-05-07 19:47 | 65.65492 | -18.07470 | 24 ft | 0 kts | 222° |
| 2026-05-07 20:20 | 65.65489 | -18.07473 | 23 ft | 0 kts | 207° |
| 2026-05-07 20:20 | 65.65488 | -18.07472 | 25 ft | 0 kts | 187° |
| 2026-05-07 20:21 | 65.65486 | -18.07465 | 25 ft | 1 kts | 133° |
| 2026-05-07 20:21 | 65.65481 | -18.07393 | 24 ft | 10 kts | 98° |
| 2026-05-07 20:21 | 65.65461 | -18.07178 | 23 ft | 14 kts | 152° |
| 2026-05-07 20:21 | 65.65324 | -18.07133 | 22 ft | 26 kts | 176° |
| 2026-05-07 20:22 | 65.65110 | -18.07103 | 24 ft | 36 kts | 177° |
| 2026-05-07 20:22 | 65.64855 | -18.07057 | 25 ft | 35 kts | 175° |
| 2026-05-07 20:22 | 65.64613 | -18.07017 | 22 ft | 22 kts | 181° |
| 2026-05-07 20:22 | 65.64471 | -18.07041 | 22 ft | 14 kts | 160° |
| 2026-05-07 20:23 | 65.64465 | -18.06972 | 22 ft | 1 kts | 344° |
| 2026-05-07 20:23 | 65.64495 | -18.06988 | 22 ft | 7 kts | 358° |
| 2026-05-07 20:23 | 65.64680 | -18.07020 | 23 ft | 66 kts | 355° |
| 2026-05-07 20:23 | 65.65422 | -18.07169 | 24 ft | 147 kts | 355° |
| 2026-05-07 20:24 | 65.66596 | -18.07325 | 482 ft | 187 kts | 358° |
| 2026-05-07 20:24 | 65.67908 | -18.07601 | 1581 ft | 189 kts | 341° |
| 2026-05-07 20:24 | 65.68950 | -18.09648 | 2696 ft | 208 kts | 300° |
| 2026-05-07 20:24 | 65.69155 | -18.13254 | 3520 ft | 232 kts | 258° |
| 2026-05-07 20:25 | 65.68258 | -18.16684 | 4326 ft | 256 kts | 218° |
| 2026-05-07 20:25 | 65.66563 | -18.18125 | 5291 ft | 267 kts | 178° |
| 2026-05-07 20:25 | 65.64782 | -18.17074 | 6463 ft | 269 kts | 160° |
| 2026-05-07 20:25 | 65.62896 | -18.16333 | 7426 ft | 278 kts | 185° |
| 2026-05-07 20:26 | 65.61059 | -18.17582 | 8500 ft | 282 kts | 209° |
| 2026-05-07 20:26 | 65.59421 | -18.20266 | 9467 ft | 288 kts | 217° |
| 2026-05-07 20:26 | 65.57766 | -18.23161 | 10433 ft | 295 kts | 217° |
| 2026-05-07 20:26 | 65.56076 | -18.26155 | 11005 ft | 314 kts | 218° |
| 2026-05-07 20:27 | 65.54255 | -18.29403 | 11480 ft | 335 kts | 218° |
| 2026-05-07 20:27 | 65.52334 | -18.32846 | 12059 ft | 350 kts | 218° |
| 2026-05-07 20:27 | 65.50353 | -18.36403 | 12730 ft | 359 kts | 218° |
| 2026-05-07 20:27 | 65.48329 | -18.40031 | 13685 ft | 363 kts | 218° |
| 2026-05-07 20:28 | 65.46287 | -18.43687 | 14425 ft | 369 kts | 218° |
| 2026-05-07 20:28 | 65.44218 | -18.47385 | 15180 ft | 372 kts | 218° |
| 2026-05-07 20:28 | 65.42125 | -18.51118 | 15912 ft | 377 kts | 218° |
| 2026-05-07 20:28 | 65.40009 | -18.54886 | 16624 ft | 381 kts | 218° |
| 2026-05-07 20:29 | 65.37872 | -18.58681 | 17337 ft | 385 kts | 218° |
| 2026-05-07 20:29 | 65.35708 | -18.62519 | 18030 ft | 389 kts | 218° |
| 2026-05-07 20:29 | 65.33518 | -18.66392 | 18702 ft | 392 kts | 218° |
| 2026-05-07 20:29 | 65.31309 | -18.70291 | 19295 ft | 396 kts | 218° |
| 2026-05-07 20:30 | 65.29115 | -18.74155 | 19875 ft | 399 kts | 218° |
| 2026-05-07 20:30 | 65.26867 | -18.78107 | 20415 ft | 403 kts | 218° |
| 2026-05-07 20:30 | 65.24604 | -18.82076 | 21017 ft | 406 kts | 218° |
| 2026-05-07 20:30 | 65.22322 | -18.86070 | 21572 ft | 410 kts | 218° |
| 2026-05-07 20:31 | 65.20005 | -18.90117 | 22137 ft | 413 kts | 218° |
| 2026-05-07 20:31 | 65.17674 | -18.94177 | 22686 ft | 417 kts | 218° |
| 2026-05-07 20:31 | 65.15320 | -18.98270 | 23233 ft | 420 kts | 218° |
| 2026-05-07 20:31 | 65.12953 | -19.02376 | 23748 ft | 424 kts | 218° |
| 2026-05-07 20:32 | 65.10555 | -19.06526 | 24132 ft | 429 kts | 218° |
| 2026-05-07 20:32 | 65.08122 | -19.10727 | 24233 ft | 437 kts | 218° |
| 2026-05-07 20:32 | 65.05628 | -19.15024 | 24227 ft | 448 kts | 218° |
| 2026-05-07 20:32 | 65.03076 | -19.19408 | 24226 ft | 458 kts | 218° |
| 2026-05-07 20:33 | 65.00476 | -19.23867 | 24226 ft | 464 kts | 218° |
| 2026-05-07 20:33 | 64.97857 | -19.28345 | 24236 ft | 465 kts | 218° |
| 2026-05-07 20:33 | 64.95230 | -19.32826 | 24244 ft | 465 kts | 218° |
| 2026-05-07 20:33 | 64.92604 | -19.37295 | 24239 ft | 465 kts | 218° |
| 2026-05-07 20:34 | 64.89971 | -19.41765 | 24240 ft | 465 kts | 218° |
| 2026-05-07 20:34 | 64.87337 | -19.46224 | 24241 ft | 465 kts | 218° |
| 2026-05-07 20:34 | 64.84709 | -19.50663 | 24239 ft | 466 kts | 218° |
| 2026-05-07 20:34 | 64.82110 | -19.55043 | 24239 ft | 466 kts | 218° |
| 2026-05-07 20:35 | 64.79476 | -19.59471 | 24237 ft | 466 kts | 218° |
| 2026-05-07 20:35 | 64.76839 | -19.63893 | 24238 ft | 466 kts | 218° |
| 2026-05-07 20:35 | 64.74204 | -19.68301 | 24241 ft | 466 kts | 218° |
| 2026-05-07 20:35 | 64.71557 | -19.72715 | 24231 ft | 465 kts | 217° |
| 2026-05-07 20:36 | 64.68922 | -19.77103 | 24238 ft | 466 kts | 217° |
| 2026-05-07 20:36 | 64.66287 | -19.81478 | 24239 ft | 466 kts | 217° |
| 2026-05-07 20:36 | 64.63639 | -19.85865 | 24237 ft | 466 kts | 217° |
| 2026-05-07 20:36 | 64.61000 | -19.90226 | 24235 ft | 466 kts | 217° |
| 2026-05-07 20:37 | 64.58356 | -19.94584 | 24235 ft | 466 kts | 217° |
| 2026-05-07 20:37 | 64.55710 | -19.98935 | 24236 ft | 465 kts | 217° |
| 2026-05-07 20:37 | 64.53075 | -20.03257 | 24240 ft | 459 kts | 217° |
| 2026-05-07 20:37 | 64.50481 | -20.07502 | 24235 ft | 454 kts | 217° |
| 2026-05-07 20:38 | 64.47937 | -20.11654 | 24155 ft | 446 kts | 217° |
| 2026-05-07 20:38 | 64.45392 | -20.15800 | 23055 ft | 451 kts | 217° |
| 2026-05-07 20:38 | 64.42808 | -20.20000 | 21848 ft | 458 kts | 217° |
| 2026-05-07 20:38 | 64.40209 | -20.24214 | 21052 ft | 455 kts | 217° |
| 2026-05-07 20:39 | 64.37629 | -20.28391 | 20438 ft | 448 kts | 217° |
| 2026-05-07 20:39 | 64.35088 | -20.32497 | 19905 ft | 440 kts | 217° |
| 2026-05-07 20:39 | 64.32593 | -20.36518 | 19317 ft | 435 kts | 217° |
| 2026-05-07 20:39 | 64.30961 | -20.39143 | 18926 ft | 432 kts | 217° |
| 2026-05-07 20:40 | 64.27716 | -20.44530 | 17995 ft | 426 kts | 221° |
| 2026-05-07 20:40 | 64.26188 | -20.47362 | 17567 ft | 423 kts | 221° |
| 2026-05-07 20:40 | 64.23900 | -20.51552 | 16987 ft | 417 kts | 220° |
| 2026-05-07 20:40 | 64.21639 | -20.55655 | 16443 ft | 412 kts | 220° |
| 2026-05-07 20:41 | 64.19420 | -20.59709 | 16110 ft | 402 kts | 221° |
| 2026-05-07 20:41 | 64.17260 | -20.63687 | 15863 ft | 394 kts | 221° |
| 2026-05-07 20:41 | 64.15117 | -20.67616 | 15603 ft | 394 kts | 220° |
| 2026-05-07 20:41 | 64.12975 | -20.71533 | 15344 ft | 393 kts | 220° |
| 2026-05-07 20:42 | 64.10833 | -20.75442 | 15087 ft | 392 kts | 220° |
| 2026-05-07 20:42 | 64.08708 | -20.79312 | 14819 ft | 390 kts | 220° |
| 2026-05-07 20:42 | 64.06584 | -20.83173 | 14562 ft | 389 kts | 220° |
| 2026-05-07 20:42 | 64.04470 | -20.87005 | 14321 ft | 388 kts | 220° |
| 2026-05-07 20:43 | 64.02383 | -20.90783 | 14076 ft | 387 kts | 220° |
| 2026-05-07 20:43 | 64.00285 | -20.94573 | 13807 ft | 382 kts | 220° |
| 2026-05-07 20:43 | 63.98224 | -20.98290 | 13538 ft | 372 kts | 220° |
| 2026-05-07 20:43 | 63.96231 | -21.01876 | 13345 ft | 361 kts | 220° |
| 2026-05-07 20:44 | 63.94286 | -21.05369 | 13137 ft | 351 kts | 220° |
| 2026-05-07 20:44 | 63.92385 | -21.08777 | 12923 ft | 342 kts | 220° |
| 2026-05-07 20:44 | 63.90538 | -21.12085 | 12704 ft | 334 kts | 221° |
| 2026-05-07 20:44 | 63.89015 | -21.15904 | 12388 ft | 322 kts | 244° |
| 2026-05-07 20:45 | 63.88319 | -21.20593 | 12159 ft | 309 kts | 263° |
| 2026-05-07 20:45 | 63.87950 | -21.25082 | 11979 ft | 302 kts | 262° |
| 2026-05-07 20:45 | 63.87568 | -21.29700 | 11765 ft | 295 kts | 263° |
| 2026-05-07 20:45 | 63.87202 | -21.34224 | 11553 ft | 288 kts | 263° |
| 2026-05-07 20:46 | 63.86847 | -21.38648 | 11353 ft | 282 kts | 263° |
| 2026-05-07 20:46 | 63.86505 | -21.42932 | 11156 ft | 276 kts | 263° |
| 2026-05-07 20:46 | 63.86164 | -21.47205 | 10961 ft | 276 kts | 263° |
| 2026-05-07 20:46 | 63.85821 | -21.51486 | 10770 ft | 276 kts | 263° |
| 2026-05-07 20:47 | 63.85476 | -21.55770 | 10503 ft | 277 kts | 263° |
| 2026-05-07 20:47 | 63.85130 | -21.60060 | 10239 ft | 276 kts | 263° |
| 2026-05-07 20:47 | 63.84783 | -21.64356 | 9967 ft | 276 kts | 263° |
| 2026-05-07 20:47 | 63.84436 | -21.68624 | 9695 ft | 275 kts | 263° |
| 2026-05-07 20:48 | 63.84089 | -21.72874 | 9410 ft | 274 kts | 263° |
| 2026-05-07 20:48 | 63.83743 | -21.77094 | 9123 ft | 271 kts | 263° |
| 2026-05-07 20:48 | 63.83402 | -21.81248 | 8903 ft | 266 kts | 263° |
| 2026-05-07 20:48 | 63.83060 | -21.85390 | 8590 ft | 269 kts | 263° |
| 2026-05-07 20:49 | 63.82717 | -21.89521 | 8237 ft | 270 kts | 263° |
| 2026-05-07 20:49 | 63.82371 | -21.93689 | 7935 ft | 268 kts | 263° |
| 2026-05-07 20:49 | 63.82026 | -21.97821 | 7669 ft | 265 kts | 263° |
| 2026-05-07 20:49 | 63.81685 | -22.01898 | 7420 ft | 262 kts | 263° |
| 2026-05-07 20:50 | 63.81343 | -22.05959 | 7172 ft | 263 kts | 263° |
| 2026-05-07 20:50 | 63.80984 | -22.10022 | 6910 ft | 263 kts | 258° |
| 2026-05-07 20:50 | 63.80402 | -22.13940 | 6615 ft | 263 kts | 253° |
| 2026-05-07 20:50 | 63.79794 | -22.17830 | 6311 ft | 261 kts | 254° |
| 2026-05-07 20:51 | 63.79189 | -22.21699 | 6017 ft | 260 kts | 253° |
| 2026-05-07 20:51 | 63.78590 | -22.25529 | 5728 ft | 258 kts | 253° |
| 2026-05-07 20:51 | 63.77994 | -22.29339 | 5440 ft | 256 kts | 254° |
| 2026-05-07 20:51 | 63.77399 | -22.33129 | 5150 ft | 255 kts | 254° |
| 2026-05-07 20:52 | 63.76809 | -22.36892 | 4851 ft | 253 kts | 254° |
| 2026-05-07 20:52 | 63.76228 | -22.40593 | 4551 ft | 252 kts | 254° |
| 2026-05-07 20:52 | 63.75644 | -22.44313 | 4257 ft | 251 kts | 254° |
| 2026-05-07 20:52 | 63.75072 | -22.48010 | 3987 ft | 247 kts | 258° |
| 2026-05-07 20:53 | 63.74992 | -22.51704 | 3870 ft | 227 kts | 289° |
| 2026-05-07 20:53 | 63.75708 | -22.54615 | 3798 ft | 204 kts | 320° |
| 2026-05-07 20:53 | 63.76726 | -22.56712 | 3758 ft | 198 kts | 320° |
| 2026-05-07 20:53 | 63.77669 | -22.58892 | 3642 ft | 188 kts | 323° |
| 2026-05-07 20:54 | 63.78777 | -22.60116 | 3506 ft | 170 kts | 353° |
| 2026-05-07 20:54 | 63.79902 | -22.60375 | 3517 ft | 159 kts | 358° |
| 2026-05-07 20:54 | 63.81030 | -22.60488 | 3259 ft | 160 kts | 360° |
| 2026-05-07 20:54 | 63.82120 | -22.60527 | 3066 ft | 153 kts | 1° |
| 2026-05-07 20:55 | 63.83160 | -22.60540 | 2888 ft | 145 kts | 1° |
| 2026-05-07 20:55 | 63.84115 | -22.60546 | 2695 ft | 128 kts | 1° |
| 2026-05-07 20:55 | 63.84961 | -22.60547 | 2583 ft | 119 kts | 1° |
| 2026-05-07 20:55 | 63.85787 | -22.60548 | 2407 ft | 118 kts | 1° |
| 2026-05-07 20:56 | 63.86607 | -22.60550 | 2237 ft | 118 kts | 1° |
| 2026-05-07 20:56 | 63.87429 | -22.60548 | 2064 ft | 118 kts | 1° |
| 2026-05-07 20:56 | 63.88251 | -22.60548 | 1894 ft | 118 kts | 2° |
| 2026-05-07 20:56 | 63.89063 | -22.60547 | 1725 ft | 118 kts | 2° |
| 2026-05-07 20:57 | 63.89882 | -22.60548 | 1552 ft | 118 kts | 1° |
| 2026-05-07 20:57 | 63.90706 | -22.60547 | 1380 ft | 118 kts | 1° |
| 2026-05-07 20:57 | 63.91525 | -22.60548 | 1213 ft | 118 kts | 2° |
| 2026-05-07 20:57 | 63.92338 | -22.60535 | 1099 ft | 116 kts | 3° |
| 2026-05-07 20:58 | 63.93147 | -22.60447 | 1095 ft | 118 kts | 4° |
| 2026-05-07 20:58 | 63.93966 | -22.60443 | 781 ft | 117 kts | 0° |
| 2026-05-07 20:58 | 63.94774 | -22.60581 | 616 ft | 117 kts | 356° |
| 2026-05-07 20:58 | 63.95582 | -22.60568 | 455 ft | 116 kts | 4° |
| 2026-05-07 20:59 | 63.96387 | -22.60582 | 305 ft | 116 kts | 2° |
| 2026-05-07 20:59 | 63.97183 | -22.60571 | 183 ft | 106 kts | 3° |
| 2026-05-07 20:59 | 63.97849 | -22.60554 | 182 ft | 88 kts | 0° |
| 2026-05-07 20:59 | 63.98413 | -22.60560 | 184 ft | 74 kts | 0° |
| 2026-05-07 21:00 | 63.98843 | -22.60548 | 182 ft | 39 kts | 359° |
| 2026-05-07 21:00 | 63.99061 | -22.60553 | 183 ft | 17 kts | 354° |
| 2026-05-07 21:00 | 63.99166 | -22.60643 | 183 ft | 20 kts | 294° |
| 2026-05-07 21:00 | 63.99171 | -22.60976 | 182 ft | 24 kts | 269° |
| 2026-05-07 21:01 | 63.99172 | -22.61400 | 182 ft | 29 kts | 270° |
| 2026-05-07 21:01 | 63.99173 | -22.61693 | 182 ft | 21 kts | 270° |
| 2026-05-07 21:01 | 63.99173 | -22.61932 | 182 ft | 12 kts | 270° |
| 2026-05-07 21:01 | 63.99204 | -22.62021 | 182 ft | 8 kts | 358° |
| 2026-05-07 21:02 | 63.99226 | -22.62022 | 182 ft | 5 kts | 358° |
| 2026-05-07 21:02 | 63.99247 | -22.62020 | 182 ft | 5 kts | 15° |
| 2026-05-07 21:02 | 63.99256 | -22.61916 | 182 ft | 10 kts | 91° |
| 2026-05-07 21:02 | 63.99256 | -22.61851 | 182 ft | 4 kts | 90° |
| 2026-05-07 21:03 | 63.99256 | -22.61799 | 182 ft | 0 kts | 90° |
| 2026-05-07 21:03 | 63.99255 | -22.61814 | 182 ft | 0 kts | 90° |
| 2026-05-07 21:03 | 63.99255 | -22.61811 | 182 ft | 0 kts | 90° |